Time;durP1;ratioP1;P1;durP2;ratioP2;P2;SDS_P1;SDS_P2;PMS_P1;PMS_P2;Temp;Humidity;BMP_temperature;BMP_pressure;BME280_temperature;BME280_humidity;BME280_pressure;Samples;Min_cycle;Max_cycle;Signal;HPM_P1;HPM_P2
2022/08/31 04:00:47;;;;;;;8.83;7.37;;;20.00;99.90;;;;;;5806481;23;20503;-76
2022/08/31 04:03:14;;;;;;;8.00;6.43;;;20.00;99.90;;;;;;4987140;28;20943;-77
2022/08/31 04:05:43;;;;;;;7.40;5.70;;;20.00;99.90;;;;;;4986843;28;20590;-74
2022/08/31 04:08:10;;;;;;;8.37;7.07;;;20.00;99.90;;;;;;4987100;28;20494;-75
2022/08/31 04:10:39;;;;;;;7.80;6.47;;;20.00;99.90;;;;;;4987442;28;20571;-76
2022/08/31 04:13:06;;;;;;;7.33;5.80;;;20.00;99.90;;;;;;4987507;28;20897;-75
2022/08/31 04:15:33;;;;;;;9.00;6.60;;;20.10;99.90;;;;;;4986978;28;20464;-76
2022/08/31 04:18:01;;;;;;;11.60;7.50;;;20.10;99.90;;;;;;4987537;28;20464;-76
2022/08/31 04:20:28;;;;;;;7.50;6.60;;;20.00;99.90;;;;;;4986386;28;20466;-76
2022/08/31 04:22:55;;;;;;;9.00;6.57;;;20.00;99.90;;;;;;4987622;28;20436;-75
2022/08/31 04:25:22;;;;;;;8.23;6.70;;;20.00;99.90;;;;;;4986483;28;20471;-76
2022/08/31 04:27:49;;;;;;;10.80;7.20;;;20.00;99.90;;;;;;4988190;28;20463;-76
2022/08/31 04:30:16;;;;;;;9.83;7.10;;;20.00;99.90;;;;;;4987983;28;20451;-76
2022/08/31 04:32:43;;;;;;;9.33;6.80;;;20.00;99.90;;;;;;4988456;28;20496;-77
2022/08/31 04:35:11;;;;;;;7.63;6.40;;;20.00;99.90;;;;;;4987026;28;21117;-77
2022/08/31 04:37:40;;;;;;;6.93;6.20;;;20.00;99.90;;;;;;4987027;28;20474;-74
2022/08/31 04:40:18;;;;;;;7.93;6.00;;;20.10;99.90;;;;;;4987507;28;20814;-76
2022/08/31 04:42:45;;;;;;;8.97;6.57;;;20.10;99.90;;;;;;4987809;28;20450;-77
2022/08/31 04:45:13;;;;;;;8.33;6.00;;;20.10;99.90;;;;;;4987104;28;20470;-77
2022/08/31 04:47:40;;;;;;;8.57;6.13;;;20.00;99.90;;;;;;4987459;28;20476;-76
2022/08/31 04:50:08;;;;;;;7.93;6.70;;;20.00;99.90;;;;;;4987127;28;20693;-77
2022/08/31 04:52:36;;;;;;;10.40;5.43;;;20.00;99.90;;;;;;4987135;28;20491;-75
2022/08/31 04:55:04;;;;;;;8.90;6.60;;;20.00;99.90;;;;;;4986567;28;20471;-77
2022/08/31 04:57:33;;;;;;;8.03;5.67;;;20.00;99.90;;;;;;4987218;28;20471;-77
2022/08/31 05:00:00;;;;;;;7.97;6.33;;;20.00;99.90;;;;;;4987180;28;20471;-77
2022/08/31 05:02:27;;;;;;;8.60;6.20;;;20.10;99.90;;;;;;4987414;28;20491;-77
2022/08/31 05:04:54;;;;;;;7.33;6.13;;;20.10;99.90;;;;;;4986741;28;20467;-77
2022/08/31 05:07:21;;;;;;;8.23;6.50;;;20.10;99.90;;;;;;4986909;28;20468;-77
2022/08/31 05:09:49;;;;;;;10.67;6.73;;;20.00;99.90;;;;;;4987189;28;20943;-77
2022/08/31 05:12:16;;;;;;;8.10;5.90;;;19.90;99.90;;;;;;4987715;28;20491;-76
2022/08/31 05:14:43;;;;;;;8.73;6.13;;;20.00;99.90;;;;;;4986875;28;20941;-77
2022/08/31 05:17:09;;;;;;;7.70;6.07;;;19.90;99.90;;;;;;4987510;28;20948;-74
2022/08/31 05:19:38;;;;;;;7.50;6.20;;;19.90;99.90;;;;;;4986899;28;20570;-77
2022/08/31 05:22:05;;;;;;;9.20;5.77;;;19.90;99.90;;;;;;4987307;28;20484;-76
2022/08/31 05:24:37;;;;;;;9.20;6.17;;;19.90;99.90;;;;;;4986627;28;20746;-77
2022/08/31 05:27:06;;;;;;;9.43;5.83;;;19.90;99.90;;;;;;4987339;28;20482;-76
2022/08/31 05:29:33;;;;;;;8.27;6.03;;;19.90;99.90;;;;;;4987091;28;20456;-77
2022/08/31 05:31:59;;;;;;;8.03;6.03;;;19.90;99.90;;;;;;4987271;28;20483;-77
2022/08/31 05:34:26;;;;;;;9.30;6.67;;;19.90;99.90;;;;;;4986924;28;20506;-76
2022/08/31 05:36:55;;;;;;;8.20;6.23;;;19.90;99.90;;;;;;4987023;28;20468;-77
2022/08/31 05:39:23;;;;;;;17.30;6.43;;;19.90;99.90;;;;;;4986902;28;20470;-77
2022/08/31 05:41:49;;;;;;;8.63;6.43;;;19.80;99.90;;;;;;4987388;28;20510;-76
2022/08/31 05:44:19;;;;;;;9.33;6.90;;;19.80;99.90;;;;;;4986801;28;20456;-76
2022/08/31 05:46:48;;;;;;;11.13;6.83;;;19.70;99.90;;;;;;4987185;28;20509;-77
2022/08/31 05:49:15;;;;;;;9.13;6.70;;;19.80;99.90;;;;;;4986650;28;20484;-77
2022/08/31 05:51:42;;;;;;;10.53;6.60;;;19.80;99.90;;;;;;4987355;28;20479;-77
2022/08/31 05:54:10;;;;;;;7.93;5.70;;;19.80;99.90;;;;;;4986002;28;21038;-76
2022/08/31 05:56:40;;;;;;;7.33;6.17;;;19.80;99.90;;;;;;4987215;28;20479;-77
2022/08/31 05:59:07;;;;;;;8.50;5.83;;;19.80;99.90;;;;;;4987159;28;20466;-77
2022/08/31 06:01:38;;;;;;;6.50;5.17;;;19.80;99.90;;;;;;4987109;28;20486;-77
2022/08/31 06:04:06;;;;;;;8.07;5.83;;;19.80;99.90;;;;;;4986492;28;20443;-76
2022/08/31 06:06:34;;;;;;;11.50;6.30;;;19.80;99.90;;;;;;4986807;28;20543;-76
2022/08/31 06:09:01;;;;;;;7.83;6.17;;;19.80;99.90;;;;;;4986775;28;20463;-77
2022/08/31 06:11:29;;;;;;;10.83;6.50;;;19.80;99.90;;;;;;4986793;28;20479;-76
2022/08/31 06:13:58;;;;;;;8.33;6.50;;;19.80;99.90;;;;;;4986791;28;20495;-77
2022/08/31 06:16:26;;;;;;;7.87;6.43;;;19.80;99.90;;;;;;4986540;28;20460;-77
2022/08/31 06:18:56;;;;;;;7.40;6.10;;;19.80;99.90;;;;;;4989340;28;20463;-77
2022/08/31 06:21:25;;;;;;;7.53;5.80;;;19.80;99.90;;;;;;4990292;28;20565;-76
2022/08/31 06:23:54;;;;;;;7.10;6.17;;;19.80;99.90;;;;;;4990990;28;20459;-77
2022/08/31 06:26:22;;;;;;;6.60;5.53;;;19.80;99.90;;;;;;4990059;28;20835;-76
2022/08/31 06:28:51;;;;;;;10.83;5.67;;;19.80;99.90;;;;;;4990991;28;20794;-77
2022/08/31 06:31:22;;;;;;;5.67;5.03;;;19.70;99.90;;;;;;4990435;28;20498;-77
2022/08/31 06:33:50;;;;;;;11.10;6.00;;;19.70;99.90;;;;;;4990608;28;20940;-77
2022/08/31 06:36:21;;;;;;;12.57;6.50;;;19.80;99.90;;;;;;4989470;28;20981;-77
2022/08/31 06:38:48;;;;;;;7.57;5.60;;;19.80;99.90;;;;;;4990193;28;20470;-77
2022/08/31 06:41:16;;;;;;;8.70;6.60;;;19.70;99.90;;;;;;4990152;28;20486;-76
2022/08/31 06:43:43;;;;;;;8.23;5.77;;;19.70;99.90;;;;;;4989996;28;20460;-77
2022/08/31 06:46:11;;;;;;;9.43;6.00;;;19.70;99.90;;;;;;4989650;28;20496;-77
2022/08/31 06:48:38;;;;;;;9.47;5.60;;;19.70;99.90;;;;;;4990696;28;20463;-77
2022/08/31 06:51:06;;;;;;;9.23;6.00;;;19.70;99.90;;;;;;4989942;28;20483;-77
2022/08/31 06:53:39;;;;;;;5.73;5.13;;;19.70;99.90;;;;;;4990191;28;20491;-77
2022/08/31 06:56:07;;;;;;;6.20;5.30;;;19.70;99.90;;;;;;4989456;28;20471;-77
2022/08/31 06:58:35;;;;;;;6.63;5.30;;;19.70;99.90;;;;;;4990357;28;20567;-77
2022/08/31 07:01:06;;;;;;;10.70;5.70;;;19.70;99.90;;;;;;4990041;28;20769;-77
2022/08/31 07:03:36;;;;;;;7.83;5.70;;;19.70;99.90;;;;;;4989863;28;20459;-76
2022/08/31 07:06:09;;;;;;;6.90;5.40;;;19.70;99.90;;;;;;4989571;28;20471;-76
2022/08/31 07:08:39;;;;;;;9.10;6.03;;;19.70;99.90;;;;;;4989792;28;20469;-77
2022/08/31 07:11:11;;;;;;;11.17;6.37;;;19.70;99.90;;;;;;4990279;28;20503;-76
2022/08/31 07:13:38;;;;;;;6.63;5.27;;;19.70;99.90;;;;;;4989567;28;20498;-75
2022/08/31 07:16:07;;;;;;;10.43;6.23;;;19.70;99.90;;;;;;4989459;28;20455;-75
2022/08/31 07:18:34;;;;;;;7.70;5.20;;;19.70;99.90;;;;;;4990339;28;20475;-77
2022/08/31 07:21:09;;;;;;;5.57;4.97;;;19.70;99.90;;;;;;4989606;28;20486;-77
2022/08/31 07:23:38;;;;;;;11.83;5.93;;;19.80;99.90;;;;;;4989784;28;20554;-74
2022/08/31 07:26:07;;;;;;;6.70;5.30;;;19.70;99.90;;;;;;4989048;28;20464;-77
2022/08/31 07:28:34;;;;;;;7.43;6.07;;;19.80;99.90;;;;;;4989036;28;20978;-77
2022/08/31 07:31:02;;;;;;;6.77;5.30;;;19.80;99.90;;;;;;4989619;28;20506;-77
2022/08/31 07:33:37;;;;;;;7.93;6.13;;;19.80;99.90;;;;;;4988997;28;20487;-77
2022/08/31 07:36:07;;;;;;;7.60;5.53;;;19.70;99.90;;;;;;4988790;28;20456;-74
2022/08/31 07:44:06;;;;;;;8.80;5.97;;;19.70;99.90;;;;;;4988604;28;20439;-77
2022/08/31 07:46:34;;;;;;;7.60;5.73;;;19.70;99.90;;;;;;4989730;28;20487;-75
2022/08/31 07:49:01;;;;;;;10.87;6.30;;;19.70;99.90;;;;;;4989060;28;20471;-77
2022/08/31 07:51:28;;;;;;;7.33;5.50;;;19.80;99.90;;;;;;4989109;28;20490;-77
2022/08/31 07:53:56;;;;;;;7.17;5.40;;;19.80;99.90;;;;;;4988906;28;20791;-76
2022/08/31 07:56:24;;;;;;;9.43;6.10;;;19.80;99.90;;;;;;4988385;28;20888;-76
2022/08/31 07:58:51;;;;;;;8.50;5.93;;;19.80;99.90;;;;;;4988775;28;20969;-76
2022/08/31 08:01:19;;;;;;;10.20;6.47;;;19.90;99.90;;;;;;4988472;28;20499;-76
2022/08/31 08:03:45;;;;;;;8.23;6.10;;;19.90;99.90;;;;;;4989006;28;20448;-77
2022/08/31 08:06:15;;;;;;;10.53;6.63;;;19.90;99.90;;;;;;4988173;28;20543;-76
2022/08/31 08:08:42;;;;;;;8.00;5.50;;;20.00;99.90;;;;;;4988945;28;20465;-76
2022/08/31 08:11:14;;;;;;;7.27;6.50;;;20.00;99.90;;;;;;4988261;28;20773;-76
2022/08/31 08:13:43;;;;;;;7.80;5.53;;;20.00;99.90;;;;;;4988983;28;20804;-77
2022/08/31 08:16:10;;;;;;;9.70;6.50;;;20.00;99.90;;;;;;4988215;28;20559;-76
2022/08/31 08:18:37;;;;;;;8.67;6.27;;;20.10;99.90;;;;;;4988394;28;21140;-74
2022/08/31 08:21:04;;;;;;;8.10;5.87;;;20.10;99.90;;;;;;4988619;28;20999;-77
2022/08/31 08:23:31;;;;;;;10.17;7.07;;;20.10;99.90;;;;;;4988481;28;20461;-77
2022/08/31 08:26:00;;;;;;;8.60;6.40;;;20.10;99.90;;;;;;4987795;28;20478;-77
2022/08/31 08:28:28;;;;;;;8.20;6.70;;;20.10;99.90;;;;;;4988431;28;20875;-77
2022/08/31 08:31:00;;;;;;;9.10;5.50;;;20.20;99.90;;;;;;4988572;28;20491;-75
2022/08/31 08:33:27;;;;;;;10.00;5.70;;;20.20;99.90;;;;;;4988215;28;20452;-77
2022/08/31 08:35:56;;;;;;;7.17;5.73;;;20.20;99.90;;;;;;4987311;28;20960;-73
2022/08/31 08:38:23;;;;;;;11.63;6.20;;;20.30;99.90;;;;;;4988459;28;20463;-74
2022/08/31 08:40:50;;;;;;;8.93;5.93;;;20.20;99.90;;;;;;4988133;28;20475;-77
2022/08/31 08:43:20;;;;;;;7.47;5.80;;;20.20;99.90;;;;;;4988261;28;20900;-74
2022/08/31 08:45:51;;;;;;;7.23;5.60;;;20.20;99.90;;;;;;4987404;28;20746;-76
2022/08/31 08:48:23;;;;;;;8.20;6.40;;;20.20;99.90;;;;;;4987954;28;20467;-77
2022/08/31 08:50:51;;;;;;;10.43;5.93;;;20.20;99.90;;;;;;4988023;28;20579;-77
2022/08/31 08:53:24;;;;;;;13.40;6.13;;;20.30;99.90;;;;;;4987911;28;20562;-77
2022/08/31 08:55:51;;;;;;;7.23;6.40;;;20.20;99.90;;;;;;4987524;28;20436;-75
2022/08/31 08:58:19;;;;;;;13.17;6.63;;;20.20;99.90;;;;;;4988237;28;20456;-77
2022/08/31 09:00:50;;;;;;;9.30;6.13;;;20.20;99.90;;;;;;4988184;28;20523;-77
2022/08/31 09:03:23;;;;;;;10.23;7.00;;;20.30;99.90;;;;;;4987948;28;20456;-76
2022/08/31 09:06:00;;;;;;;8.80;6.50;;;20.30;99.90;;;;;;4986975;28;20464;-76
2022/08/31 09:08:58;;;;;;;9.47;7.40;;;20.30;99.90;;;;;;4988078;28;20479;-77
2022/08/31 09:11:34;;;;;;;13.20;6.63;;;20.30;99.90;;;;;;4962813;28;21046;-77
2022/08/31 09:14:18;;;;;;;9.60;6.90;;;20.30;99.90;;;;;;4987301;28;20491;-77
2022/08/31 09:16:58;;;;;;;12.67;6.70;;;20.40;99.90;;;;;;4987651;28;20478;-76
2022/08/31 09:19:26;;;;;;;8.40;6.37;;;20.30;99.90;;;;;;4987857;28;20577;-77
2022/08/31 09:21:56;;;;;;;8.13;6.53;;;20.40;99.90;;;;;;4987717;28;21258;-77
2022/08/31 09:24:25;;;;;;;9.60;7.40;;;20.40;99.90;;;;;;4986913;28;20664;-74
2022/08/31 09:27:16;;;;;;;9.53;7.63;;;20.40;99.90;;;;;;4986824;28;20522;-76
2022/08/31 09:29:44;;;;;;;8.50;6.90;;;20.40;99.90;;;;;;4987465;28;20499;-77
2022/08/31 09:32:21;;;;;;;9.90;6.00;;;20.40;99.90;;;;;;4987112;28;20999;-77
2022/08/31 09:34:57;;;;;;;8.17;6.27;;;20.40;99.90;;;;;;4987231;28;20530;-75
2022/08/31 09:37:27;;;;;;;8.83;6.77;;;20.40;99.90;;;;;;4987456;28;20473;-77
2022/08/31 09:39:55;;;;;;;9.10;6.83;;;20.40;99.90;;;;;;4987289;28;20471;-77
2022/08/31 09:42:30;;;;;;;8.80;7.00;;;20.50;99.90;;;;;;4987205;28;20484;-77
2022/08/31 09:45:00;;;;;;;7.50;6.27;;;20.40;99.90;;;;;;4986181;28;20455;-75
2022/08/31 09:47:47;;;;;;;11.67;7.03;;;20.40;99.90;;;;;;4986323;28;20967;-75
2022/08/31 09:50:34;;;;;;;7.90;6.70;;;20.40;99.90;;;;;;4986917;28;20459;-74
2022/08/31 09:56:12;;;;;;;11.30;6.67;;;20.50;99.90;;;;;;4990327;28;20634;-74
2022/08/31 09:58:41;;;;;;;9.20;7.00;;;20.50;99.90;;;;;;4990936;28;20906;-76
2022/08/31 10:01:14;;;;;;;8.43;6.83;;;20.50;99.90;;;;;;4990497;28;20506;-74
2022/08/31 10:03:45;;;;;;;9.53;6.77;;;20.50;99.90;;;;;;4990330;28;20962;-76
2022/08/31 10:06:40;;;;;;;9.53;6.50;;;20.50;99.90;;;;;;4990511;28;20455;-76
2022/08/31 10:09:13;;;;;;;7.13;6.33;;;20.50;99.90;;;;;;4990800;28;20534;-77
2022/08/31 10:11:46;;;;;;;9.43;6.93;;;20.60;99.90;;;;;;4990109;28;20856;-77
2022/08/31 10:14:21;;;;;;;12.03;7.70;;;20.60;99.90;;;;;;4990266;28;20480;-76
2022/08/31 10:16:53;;;;;;;8.37;6.93;;;20.60;99.90;;;;;;4990386;28;20847;-77
2022/08/31 10:19:29;;;;;;;9.57;7.50;;;20.60;99.90;;;;;;4990580;28;20457;-77
2022/08/31 10:22:02;;;;;;;11.90;7.90;;;20.60;99.90;;;;;;4989468;28;20474;-77
2022/08/31 10:24:37;;;;;;;9.90;8.17;;;20.60;99.90;;;;;;4989999;28;20455;-77
2022/08/31 10:27:15;;;;;;;13.00;8.60;;;20.50;99.90;;;;;;4990415;28;20815;-77
2022/08/31 10:29:48;;;;;;;11.13;7.47;;;20.60;99.90;;;;;;4990169;28;20566;-77
2022/08/31 10:32:30;;;;;;;16.53;8.33;;;20.50;99.90;;;;;;4989998;28;20515;-76
2022/08/31 10:35:04;;;;;;;12.63;8.10;;;20.50;99.90;;;;;;4989039;28;21057;-76
2022/08/31 10:37:45;;;;;;;10.97;7.87;;;20.50;99.90;;;;;;4989944;28;20454;-76
2022/08/31 10:40:30;;;;;;;9.87;7.33;;;20.50;99.90;;;;;;4989639;28;21023;-77
2022/08/31 10:43:08;;;;;;;11.90;8.10;;;20.50;99.90;;;;;;4990383;28;20543;-75
2022/08/31 10:45:40;;;;;;;9.63;7.37;;;20.50;99.90;;;;;;4989363;28;21223;-77
2022/08/31 10:48:09;;;;;;;9.03;7.27;;;20.50;99.90;;;;;;4989554;28;20495;-77
2022/08/31 10:50:45;;;;;;;8.03;7.07;;;20.50;99.90;;;;;;4990002;28;20918;-76
2022/08/31 10:53:31;;;;;;;12.43;8.00;;;20.60;99.90;;;;;;4989688;28;20613;-77
2022/08/31 10:56:07;;;;;;;11.73;7.93;;;20.50;99.90;;;;;;4989543;28;20510;-76
2022/08/31 10:58:41;;;;;;;10.20;8.50;;;20.50;99.90;;;;;;4989782;28;20762;-75
2022/08/31 11:01:15;;;;;;;9.67;7.83;;;20.60;99.90;;;;;;4989393;28;20490;-75
2022/08/31 11:04:13;;;;;;;9.93;8.17;;;20.70;99.90;;;;;;4988587;28;20462;-76
2022/08/31 11:06:47;;;;;;;7.80;7.00;;;20.70;99.90;;;;;;4989675;28;20914;-75
2022/08/31 11:09:19;;;;;;;11.07;8.60;;;20.70;99.90;;;;;;4989391;28;20451;-75
2022/08/31 11:11:50;;;;;;;8.13;7.27;;;20.70;99.90;;;;;;4989437;28;20482;-75
2022/08/31 11:14:57;;;;;;;9.87;7.60;;;20.70;99.90;;;;;;4988212;28;20971;-77
2022/08/31 11:17:48;;;;;;;9.30;7.27;;;20.70;99.90;;;;;;4975637;28;20963;-74
2022/08/31 11:20:33;;;;;;;10.43;7.77;;;20.80;99.90;;;;;;4989475;28;20470;-77
2022/08/31 11:23:16;;;;;;;9.33;7.10;;;20.80;99.90;;;;;;4990142;28;20456;-77
2022/08/31 11:26:25;;;;;;;10.93;7.53;;;20.80;99.90;;;;;;4989308;28;20470;-76
2022/08/31 11:28:59;;;;;;;15.17;9.90;;;20.80;99.90;;;;;;4990271;28;20444;-76
2022/08/31 11:31:30;;;;;;;10.97;7.67;;;20.80;99.90;;;;;;4989749;28;20486;-76
2022/08/31 11:34:06;;;;;;;8.33;7.40;;;20.80;99.90;;;;;;4989383;28;21144;-77
2022/08/31 11:36:51;;;;;;;8.90;7.60;;;20.90;99.90;;;;;;4989042;28;20503;-77
2022/08/31 11:39:37;;;;;;;8.03;6.77;;;21.10;99.90;;;;;;4989838;28;20496;-77
2022/08/31 11:42:11;;;;;;;10.20;7.20;;;21.30;99.90;;;;;;4989599;28;20468;-77
2022/08/31 11:45:00;;;;;;;10.47;7.50;;;21.40;99.90;;;;;;4988882;28;20506;-77
2022/08/31 11:47:45;;;;;;;9.87;7.90;;;21.40;99.90;;;;;;4989260;28;20440;-74
2022/08/31 11:50:54;;;;;;;9.47;7.63;;;21.40;99.90;;;;;;4990107;28;20891;-77
2022/08/31 11:53:30;;;;;;;11.43;8.13;;;21.40;99.90;;;;;;4988959;28;20456;-75
2022/08/31 11:55:59;;;;;;;8.33;7.20;;;21.40;99.90;;;;;;4988696;28;20549;-77
2022/08/31 11:58:33;;;;;;;7.93;7.00;;;21.50;99.90;;;;;;4989313;28;20567;-77
2022/08/31 12:01:22;;;;;;;9.57;7.50;;;21.50;99.90;;;;;;4988910;28;20828;-75
2022/08/31 12:03:51;;;;;;;8.87;7.13;;;21.40;99.90;;;;;;4988851;28;20458;-77
2022/08/31 12:06:55;;;;;;;9.17;6.80;;;21.40;99.90;;;;;;4988190;28;20455;-76
2022/08/31 12:09:55;;;;;;;10.43;7.97;;;21.40;99.90;;;;;;4979147;28;20563;-75
2022/08/31 12:12:48;;;;;;;9.93;8.00;;;21.40;99.90;;;;;;4990064;28;20515;-73
2022/08/31 12:15:24;;;;;;;9.00;7.80;;;21.40;99.90;;;;;;4957445;28;20492;-77
2022/08/31 12:18:11;;;;;;;7.80;7.00;;;21.50;99.90;;;;;;4988821;28;20877;-77
2022/08/31 12:23:45;;;;;;;8.23;7.33;;;21.90;99.90;;;;;;4988361;28;20555;-77
2022/08/31 12:26:30;;;;;;;11.40;8.10;;;22.00;99.90;;;;;;4988257;28;20467;-77
2022/08/31 12:29:16;;;;;;;11.90;8.23;;;21.90;99.90;;;;;;4988517;28;20452;-77
2022/08/31 12:32:06;;;;;;;9.43;7.00;;;21.90;99.90;;;;;;4988196;28;20483;-77
2022/08/31 12:34:37;;;;;;;10.50;6.90;;;21.90;99.90;;;;;;4987273;28;20931;-76
2022/08/31 12:37:19;;;;;;;12.80;7.00;;;22.10;99.90;;;;;;4988158;28;20696;-77
2022/08/31 12:39:46;;;;;;;9.70;7.20;;;22.20;99.90;;;;;;4987515;28;20454;-76
2022/08/31 12:42:12;;;;;;;11.93;6.70;;;22.40;99.90;;;;;;4987720;28;21574;-77
2022/08/31 12:44:46;;;;;;;11.50;6.50;;;23.10;99.90;;;;;;4987483;28;20493;-77
2022/08/31 12:47:25;;;;;;;11.50;6.13;;;23.40;99.90;;;;;;4988073;28;20464;-76
2022/08/31 12:50:04;;;;;;;8.53;6.00;;;23.50;99.90;;;;;;4987725;28;20463;-77
2022/08/31 12:52:46;;;;;;;12.30;6.53;;;23.60;99.90;;;;;;4987819;28;20477;-77
2022/08/31 12:55:27;;;;;;;6.93;6.23;;;23.70;99.90;;;;;;4987214;28;20490;-76
2022/08/31 12:58:07;;;;;;;8.50;5.70;;;23.80;99.90;;;;;;4987304;28;20456;-77
2022/08/31 13:00:38;;;;;;;9.70;6.07;;;23.80;99.90;;;;;;4986827;28;20578;-76
2022/08/31 13:03:15;;;;;;;12.97;6.50;;;23.80;99.90;;;;;;4987352;28;20463;-77
2022/08/31 13:05:59;;;;;;;6.93;5.90;;;23.90;99.90;;;;;;4987004;28;20448;-76
2022/08/31 13:08:27;;;;;;;8.47;5.90;;;24.30;99.90;;;;;;4987349;28;20558;-76
2022/08/31 13:10:53;;;;;;;10.83;6.07;;;24.60;99.90;;;;;;4987164;28;21016;-77
2022/08/31 13:13:23;;;;;;;9.53;6.17;;;24.60;99.90;;;;;;4986756;28;20455;-76
2022/08/31 13:15:51;;;;;;;8.70;5.63;;;24.80;99.90;;;;;;4986275;28;20536;-77
2022/08/31 13:18:23;;;;;;;7.37;6.30;;;24.90;99.90;;;;;;4986915;28;20833;-74
2022/08/31 13:20:55;;;;;;;9.93;5.93;;;24.80;99.90;;;;;;4986788;28;20486;-77
2022/08/31 13:23:28;;;;;;;9.87;6.00;;;24.60;99.90;;;;;;4986882;28;20455;-76
2022/08/31 13:26:02;;;;;;;7.47;6.10;;;24.40;99.90;;;;;;4986479;28;20559;-74
2022/08/31 13:28:31;;;;;;;9.90;5.73;;;24.20;99.90;;;;;;4986574;28;20463;-77
2022/08/31 13:31:01;;;;;;;9.43;6.10;;;24.20;99.90;;;;;;4986974;28;20476;-76
2022/08/31 13:33:30;;;;;;;7.70;6.30;;;24.30;99.90;;;;;;4986850;28;20464;-77
2022/08/31 13:36:03;;;;;;;7.50;6.70;;;24.40;99.90;;;;;;4986206;28;20499;-76
2022/08/31 13:38:41;;;;;;;9.33;5.13;;;24.40;99.90;;;;;;4987092;28;20444;-77
2022/08/31 13:41:16;;;;;;;9.20;5.57;;;24.50;99.90;;;;;;4987207;28;20689;-77
2022/08/31 13:43:52;;;;;;;7.67;5.97;;;24.60;99.90;;;;;;4986386;28;20452;-77
2022/08/31 13:46:23;;;;;;;6.77;5.83;;;24.70;99.90;;;;;;4986068;28;20450;-77
2022/08/31 13:49:00;;;;;;;6.97;4.97;;;24.80;99.90;;;;;;4986273;28;20454;-77
2022/08/31 13:51:32;;;;;;;7.23;5.07;;;24.80;99.90;;;;;;4986724;28;20481;-77
2022/08/31 13:54:12;;;;;;;8.53;5.17;;;24.80;99.90;;;;;;4986254;28;20819;-75
2022/08/31 13:56:54;;;;;;;8.00;5.07;;;24.80;99.90;;;;;;4986757;28;20502;-77
2022/08/31 13:59:42;;;;;;;12.13;5.23;;;24.90;99.90;;;;;;4987054;28;20910;-77
2022/08/31 14:02:29;;;;;;;8.57;5.43;;;24.90;99.90;;;;;;4980968;28;20527;-77
2022/08/31 14:05:00;;;;;;;8.10;4.90;;;24.80;99.90;;;;;;4985689;28;20538;-77
2022/08/31 14:07:52;;;;;;;8.07;4.47;;;24.90;99.90;;;;;;4986171;28;20454;-77
2022/08/31 14:10:22;;;;;;;5.50;4.77;;;24.80;99.90;;;;;;4986249;28;20459;-77
2022/08/31 14:12:53;;;;;;;9.73;5.10;;;24.80;99.90;;;;;;4986529;28;20467;-77
2022/08/31 14:15:34;;;;;;;8.00;4.20;;;24.80;99.90;;;;;;4985572;28;20512;-77
2022/08/31 14:18:14;;;;;;;7.70;4.63;;;24.70;99.90;;;;;;4985912;28;20911;-77
2022/08/31 14:20:44;;;;;;;6.93;4.60;;;24.70;99.90;;;;;;4986453;28;20972;-77
2022/08/31 14:23:34;;;;;;;7.07;4.33;;;24.80;99.90;;;;;;4986035;28;20956;-77
2022/08/31 14:26:04;;;;;;;4.70;4.30;;;24.90;99.90;;;;;;4985630;28;20487;-77
2022/08/31 14:28:39;;;;;;;5.20;4.70;;;25.10;99.90;;;;;;4986434;28;20459;-77
2022/08/31 14:31:28;;;;;;;7.33;4.87;;;25.20;99.90;;;;;;4986073;28;20487;-77
2022/08/31 14:34:20;;;;;;;7.00;4.70;;;25.20;99.90;;;;;;4980720;28;20463;-77
2022/08/31 14:36:52;;;;;;;6.83;4.87;;;25.20;99.90;;;;;;4986339;28;20830;-77
2022/08/31 14:39:25;;;;;;;5.30;4.17;;;25.20;99.90;;;;;;4987117;28;20916;-76
2022/08/31 14:41:53;;;;;;;5.53;4.50;;;25.10;99.90;;;;;;4989702;28;20479;-77
2022/08/31 14:44:24;;;;;;;5.37;4.33;;;25.10;99.90;;;;;;4989026;28;20455;-77
2022/08/31 14:46:51;;;;;;;5.20;4.07;;;25.00;99.90;;;;;;4988846;28;20455;-77
2022/08/31 14:49:18;;;;;;;4.87;4.10;;;25.00;99.90;;;;;;4989483;28;20460;-77
2022/08/31 14:51:45;;;;;;;11.10;4.53;;;24.90;99.90;;;;;;4989339;28;20497;-77
2022/08/31 14:54:15;;;;;;;4.53;4.10;;;24.80;99.90;;;;;;4989162;28;20498;-77
2022/08/31 14:56:46;;;;;;;6.90;4.57;;;24.70;99.90;;;;;;4988928;28;20493;-76
2022/08/31 14:59:16;;;;;;;4.20;3.57;;;24.70;99.90;;;;;;4988936;28;20463;-75
2022/08/31 15:01:44;;;;;;;5.10;3.93;;;24.60;99.90;;;;;;4988618;28;20487;-75
2022/08/31 15:04:12;;;;;;;8.03;4.70;;;24.70;99.90;;;;;;4987787;28;20746;-75
2022/08/31 15:06:38;;;;;;;6.40;4.17;;;24.80;99.90;;;;;;4988657;28;20459;-75
2022/08/31 15:09:07;;;;;;;8.83;4.10;;;24.90;99.90;;;;;;4988592;28;20820;-76
2022/08/31 15:11:36;;;;;;;8.50;3.80;;;25.10;99.90;;;;;;4988748;28;20487;-76
2022/08/31 15:14:06;;;;;;;6.33;4.20;;;25.30;99.90;;;;;;4987993;28;20824;-75
2022/08/31 15:16:33;;;;;;;5.60;3.70;;;25.50;99.90;;;;;;4988575;28;20475;-76
2022/08/31 15:19:00;;;;;;;5.20;3.50;;;25.60;99.90;;;;;;4988541;28;20459;-75
2022/08/31 15:21:27;;;;;;;5.73;3.70;;;25.70;99.90;;;;;;4987915;28;20984;-76
2022/08/31 15:23:54;;;;;;;10.30;3.90;;;25.70;99.90;;;;;;4988052;28;20462;-76
2022/08/31 15:26:21;;;;;;;8.33;3.77;;;25.80;99.90;;;;;;4987539;28;20458;-75
2022/08/31 15:28:51;;;;;;;5.33;3.00;;;25.90;99.90;;;;;;4988296;28;20459;-75
2022/08/31 15:31:25;;;;;;;4.60;3.47;;;26.00;99.90;;;;;;4987853;28;20877;-75
2022/08/31 15:33:54;;;;;;;6.20;2.70;;;26.10;99.90;;;;;;4988255;28;20446;-76
2022/08/31 15:36:23;;;;;;;3.60;3.00;;;26.40;99.90;;;;;;4987412;28;21281;-77
2022/08/31 15:38:54;;;;;;;3.67;2.60;;;26.60;99.90;;;;;;4988056;28;20471;-75
2022/08/31 15:41:21;;;;;;;7.67;3.20;;;26.90;99.90;;;;;;4987935;28;20479;-76
2022/08/31 15:43:50;;;;;;;4.20;3.00;;;27.00;99.90;;;;;;4987888;28;20820;-75
2022/08/31 15:48:40;;;;;;;3.83;2.97;;;27.10;99.90;;;;;;4987064;28;20522;-76
2022/08/31 15:49:06;;;;;;;4.10;2.90;;;27.10;99.90;;;;;;4987382;28;20452;-77
2022/08/31 15:51:33;;;;;;;4.67;3.20;;;27.10;99.90;;;;;;4986641;28;20479;-76
2022/08/31 15:54:03;;;;;;;3.13;2.70;;;27.20;99.90;;;;;;4987126;28;20467;-75
2022/08/31 15:56:30;;;;;;;4.20;3.60;;;27.20;99.90;;;;;;4987469;28;20498;-76
2022/08/31 15:59:00;;;;;;;3.50;3.00;;;27.20;99.90;;;;;;4987242;28;20464;-75
2022/08/31 16:01:27;;;;;;;3.77;3.00;;;27.20;99.90;;;;;;4987424;28;20575;-76
2022/08/31 16:03:56;;;;;;;4.10;3.50;;;27.00;99.90;;;;;;4987553;28;20467;-76
2022/08/31 16:06:27;;;;;;;3.90;3.50;;;27.00;99.90;;;;;;4987297;28;20463;-75
2022/08/31 16:08:54;;;;;;;9.37;3.23;;;26.90;99.90;;;;;;4987056;28;20463;-76
2022/08/31 16:11:23;;;;;;;4.37;3.27;;;26.80;99.90;;;;;;4984745;28;20472;-76
2022/08/31 16:13:57;;;;;;;3.20;2.90;;;26.70;99.90;;;;;;4987302;28;20462;-76
2022/08/31 16:16:25;;;;;;;3.77;2.57;;;26.60;99.90;;;;;;4987869;28;20495;-72
2022/08/31 16:18:53;;;;;;;6.43;3.30;;;26.60;99.90;;;;;;4988005;28;20956;-72
2022/08/31 16:21:21;;;;;;;3.87;3.20;;;26.40;99.90;;;;;;4988152;28;20487;-72
2022/08/31 16:23:58;;;;;;;4.13;3.50;;;26.30;99.90;;;;;;4989369;28;20456;-76
2022/08/31 16:26:25;;;;;;;4.43;3.10;;;26.20;99.90;;;;;;4989102;28;20451;-77
2022/08/31 16:28:52;;;;;;;3.40;3.10;;;26.00;99.90;;;;;;4989026;28;20470;-76
2022/08/31 16:31:19;;;;;;;4.67;3.30;;;25.90;99.90;;;;;;4989147;28;20996;-76
2022/08/31 16:33:46;;;;;;;3.83;2.60;;;25.80;99.90;;;;;;4988843;28;20456;-76
2022/08/31 16:36:19;;;;;;;3.47;3.17;;;25.70;99.90;;;;;;4987526;28;20496;-76
2022/08/31 16:38:47;;;;;;;5.37;3.30;;;25.60;99.90;;;;;;4989187;28;20444;-76
2022/08/31 16:41:17;;;;;;;4.13;3.03;;;25.50;99.90;;;;;;4988790;28;20479;-76
2022/08/31 16:43:46;;;;;;;3.10;2.80;;;25.50;99.90;;;;;;4988853;28;20921;-76
2022/08/31 16:46:14;;;;;;;4.50;3.60;;;25.40;99.90;;;;;;4986327;28;20460;-76
2022/08/31 16:51:25;;;;;;;4.80;3.20;;;25.30;99.90;;;;;;4987090;28;20459;-71
2022/08/31 16:53:53;;;;;;;8.67;4.13;;;25.20;99.90;;;;;;4986416;28;20463;-71
2022/08/31 16:56:24;;;;;;;8.60;4.00;;;25.20;99.90;;;;;;4986194;28;20495;-71
2022/08/31 16:58:51;;;;;;;7.23;4.60;;;25.20;99.90;;;;;;4986827;28;20464;-71
2022/08/31 17:01:21;;;;;;;5.60;4.80;;;25.20;99.90;;;;;;4986196;28;20488;-71
2022/08/31 17:03:51;;;;;;;8.00;5.00;;;25.10;99.90;;;;;;4986959;28;20482;-71
2022/08/31 17:06:18;;;;;;;7.20;4.70;;;25.10;99.90;;;;;;4985333;28;21006;-71
2022/08/31 17:08:45;;;;;;;6.10;5.17;;;25.10;99.90;;;;;;4986668;28;21262;-71
2022/08/31 17:11:22;;;;;;;9.03;5.20;;;25.00;99.90;;;;;;4986708;28;20491;-71
2022/08/31 17:13:52;;;;;;;6.30;4.43;;;24.80;99.90;;;;;;4986714;28;20460;-71
2022/08/31 17:16:20;;;;;;;12.43;4.70;;;24.80;99.90;;;;;;4985897;28;21040;-71
2022/08/31 17:18:51;;;;;;;6.37;4.87;;;24.70;99.90;;;;;;4986231;28;20470;-71
2022/08/31 17:21:21;;;;;;;9.93;5.37;;;24.60;99.90;;;;;;4986538;28;20475;-69
2022/08/31 17:23:50;;;;;;;11.70;5.70;;;24.50;99.90;;;;;;4986408;28;20462;-71
2022/08/31 17:26:18;;;;;;;11.60;5.70;;;24.40;99.90;;;;;;4985877;28;20495;-70